sensor_id;sensor_type;location;lat;lon;timestamp;temperature;humidity
780;DHT22;373;49.342;8.146;2023-03-14T00:00:06;11.80;1.00
780;DHT22;373;49.342;8.146;2023-03-14T00:02:35;11.80;1.00
780;DHT22;373;49.342;8.146;2023-03-14T00:05:03;11.70;1.00
780;DHT22;373;49.342;8.146;2023-03-14T00:07:34;11.80;1.00
780;DHT22;373;49.342;8.146;2023-03-14T00:10:03;11.80;1.00
780;DHT22;373;49.342;8.146;2023-03-14T00:12:31;11.80;1.00
780;DHT22;373;49.342;8.146;2023-03-14T00:14:58;11.80;1.00
780;DHT22;373;49.342;8.146;2023-03-14T00:17:26;11.80;1.00
780;DHT22;373;49.342;8.146;2023-03-14T00:19:53;11.90;1.00
780;DHT22;373;49.342;8.146;2023-03-14T00:22:20;11.90;1.00
780;DHT22;373;49.342;8.146;2023-03-14T00:24:48;12.00;1.00
780;DHT22;373;49.342;8.146;2023-03-14T00:27:15;11.90;1.00
780;DHT22;373;49.342;8.146;2023-03-14T00:29:43;12.00;1.00
780;DHT22;373;49.342;8.146;2023-03-14T00:32:11;11.90;1.00
780;DHT22;373;49.342;8.146;2023-03-14T00:34:39;11.80;1.00
780;DHT22;373;49.342;8.146;2023-03-14T00:37:06;11.60;1.00
780;DHT22;373;49.342;8.146;2023-03-14T00:39:33;11.50;1.00
780;DHT22;373;49.342;8.146;2023-03-14T00:42:02;11.50;7.50
780;DHT22;373;49.342;8.146;2023-03-14T00:44:29;11.50;12.50
780;DHT22;373;49.342;8.146;2023-03-14T00:46:57;11.50;16.90
780;DHT22;373;49.342;8.146;2023-03-14T00:49:24;11.60;12.00
780;DHT22;373;49.342;8.146;2023-03-14T00:51:51;11.50;1.00
780;DHT22;373;49.342;8.146;2023-03-14T00:54:19;11.60;1.00
780;DHT22;373;49.342;8.146;2023-03-14T00:56:46;11.60;1.00
780;DHT22;373;49.342;8.146;2023-03-14T00:59:15;11.70;1.00
780;DHT22;373;49.342;8.146;2023-03-14T01:01:42;11.60;1.00
780;DHT22;373;49.342;8.146;2023-03-14T01:04:10;11.60;1.00
780;DHT22;373;49.342;8.146;2023-03-14T01:06:37;11.60;1.00
780;DHT22;373;49.342;8.146;2023-03-14T01:09:04;11.60;1.00
780;DHT22;373;49.342;8.146;2023-03-14T01:11:33;11.60;1.00
780;DHT22;373;49.342;8.146;2023-03-14T01:14:01;11.60;1.00
780;DHT22;373;49.342;8.146;2023-03-14T01:16:31;11.60;1.00
780;DHT22;373;49.342;8.146;2023-03-14T01:19:00;11.70;1.00
780;DHT22;373;49.342;8.146;2023-03-14T01:21:29;11.60;1.00
780;DHT22;373;49.342;8.146;2023-03-14T01:23:58;11.70;1.00
780;DHT22;373;49.342;8.146;2023-03-14T01:26:28;11.70;1.00
780;DHT22;373;49.342;8.146;2023-03-14T01:28:56;11.70;1.00
780;DHT22;373;49.342;8.146;2023-03-14T01:31:24;11.80;1.00
780;DHT22;373;49.342;8.146;2023-03-14T01:33:53;11.80;1.00
780;DHT22;373;49.342;8.146;2023-03-14T01:36:21;11.70;1.00
780;DHT22;373;49.342;8.146;2023-03-14T01:38:48;11.60;1.00
780;DHT22;373;49.342;8.146;2023-03-14T01:41:18;11.70;1.00
780;DHT22;373;49.342;8.146;2023-03-14T01:43:46;11.70;1.00
780;DHT22;373;49.342;8.146;2023-03-14T01:46:28;11.60;1.00
780;DHT22;373;49.342;8.146;2023-03-14T01:49:02;11.70;1.00
780;DHT22;373;49.342;8.146;2023-03-14T01:51:36;11.70;1.00
780;DHT22;373;49.342;8.146;2023-03-14T01:54:10;11.60;1.00
780;DHT22;373;49.342;8.146;2023-03-14T01:56:39;11.60;11.20
780;DHT22;373;49.342;8.146;2023-03-14T01:59:09;11.50;1.00
780;DHT22;373;49.342;8.146;2023-03-14T02:01:38;11.40;34.40
780;DHT22;373;49.342;8.146;2023-03-14T02:04:09;11.30;54.80
780;DHT22;373;49.342;8.146;2023-03-14T02:06:47;11.30;24.90
780;DHT22;373;49.342;8.146;2023-03-14T02:09:17;11.40;1.00
780;DHT22;373;49.342;8.146;2023-03-14T02:11:44;11.50;1.00
780;DHT22;373;49.342;8.146;2023-03-14T02:14:33;11.50;1.00
780;DHT22;373;49.342;8.146;2023-03-14T02:17:22;11.50;1.00
780;DHT22;373;49.342;8.146;2023-03-14T02:20:19;11.70;1.00
780;DHT22;373;49.342;8.146;2023-03-14T02:22:54;11.60;1.00
780;DHT22;373;49.342;8.146;2023-03-14T02:25:28;11.60;1.00
780;DHT22;373;49.342;8.146;2023-03-14T02:28:00;11.60;1.00
780;DHT22;373;49.342;8.146;2023-03-14T02:30:30;11.60;1.00
780;DHT22;373;49.342;8.146;2023-03-14T02:33:01;11.60;1.00
780;DHT22;373;49.342;8.146;2023-03-14T02:35:34;11.70;1.00
780;DHT22;373;49.342;8.146;2023-03-14T02:38:06;11.60;1.00
780;DHT22;373;49.342;8.146;2023-03-14T02:40:38;11.70;1.00
780;DHT22;373;49.342;8.146;2023-03-14T02:43:08;11.70;1.00
780;DHT22;373;49.342;8.146;2023-03-14T02:45:44;11.70;1.00
780;DHT22;373;49.342;8.146;2023-03-14T02:48:17;11.70;99.90
780;DHT22;373;49.342;8.146;2023-03-14T02:50:47;11.70;1.00
780;DHT22;373;49.342;8.146;2023-03-14T02:53:18;11.80;58.40
780;DHT22;373;49.342;8.146;2023-03-14T02:55:46;12.00;1.00
780;DHT22;373;49.342;8.146;2023-03-14T02:58:18;11.80;1.00
780;DHT22;373;49.342;8.146;2023-03-14T03:00:48;11.80;1.00
780;DHT22;373;49.342;8.146;2023-03-14T03:03:16;11.70;1.00
780;DHT22;373;49.342;8.146;2023-03-14T03:05:48;11.70;1.00
780;DHT22;373;49.342;8.146;2023-03-14T03:08:16;11.70;1.00
780;DHT22;373;49.342;8.146;2023-03-14T03:10:43;11.70;99.90
780;DHT22;373;49.342;8.146;2023-03-14T03:13:10;11.70;1.00
780;DHT22;373;49.342;8.146;2023-03-14T03:15:39;11.70;1.00
780;DHT22;373;49.342;8.146;2023-03-14T03:18:07;11.70;1.00
780;DHT22;373;49.342;8.146;2023-03-14T03:20:34;11.70;99.90
780;DHT22;373;49.342;8.146;2023-03-14T03:23:01;11.70;1.00
780;DHT22;373;49.342;8.146;2023-03-14T03:25:29;11.70;57.00
780;DHT22;373;49.342;8.146;2023-03-14T03:27:57;11.70;1.00
780;DHT22;373;49.342;8.146;2023-03-14T03:30:24;11.70;71.20
780;DHT22;373;49.342;8.146;2023-03-14T03:32:52;11.70;1.00
780;DHT22;373;49.342;8.146;2023-03-14T03:35:19;11.90;99.90
780;DHT22;373;49.342;8.146;2023-03-14T03:37:47;11.70;99.90
780;DHT22;373;49.342;8.146;2023-03-14T03:40:14;11.70;1.00
780;DHT22;373;49.342;8.146;2023-03-14T03:42:41;11.80;99.90
780;DHT22;373;49.342;8.146;2023-03-14T03:45:10;11.70;99.90
780;DHT22;373;49.342;8.146;2023-03-14T03:47:46;11.70;99.90
780;DHT22;373;49.342;8.146;2023-03-14T03:50:14;11.60;1.00
780;DHT22;373;49.342;8.146;2023-03-14T03:52:41;11.60;1.00
780;DHT22;373;49.342;8.146;2023-03-14T03:55:09;11.70;1.00
780;DHT22;373;49.342;8.146;2023-03-14T03:57:36;11.60;99.90
780;DHT22;373;49.342;8.146;2023-03-14T04:00:04;11.70;1.00
780;DHT22;373;49.342;8.146;2023-03-14T04:02:40;11.70;99.90
780;DHT22;373;49.342;8.146;2023-03-14T04:05:09;11.70;99.90
780;DHT22;373;49.342;8.146;2023-03-14T04:07:42;11.60;99.90
780;DHT22;373;49.342;8.146;2023-03-14T04:10:10;11.60;99.90
780;DHT22;373;49.342;8.146;2023-03-14T04:12:42;11.60;1.00
780;DHT22;373;49.342;8.146;2023-03-14T04:15:17;11.50;1.00
780;DHT22;373;49.342;8.146;2023-03-14T04:17:48;11.50;1.00
780;DHT22;373;49.342;8.146;2023-03-14T04:20:15;11.50;99.90
780;DHT22;373;49.342;8.146;2023-03-14T04:22:44;11.40;99.90
780;DHT22;373;49.342;8.146;2023-03-14T04:25:11;11.40;1.00
780;DHT22;373;49.342;8.146;2023-03-14T04:27:44;11.40;1.00
780;DHT22;373;49.342;8.146;2023-03-14T04:30:18;11.40;1.00
780;DHT22;373;49.342;8.146;2023-03-14T04:32:58;11.40;39.10
780;DHT22;373;49.342;8.146;2023-03-14T04:35:26;11.40;99.90
780;DHT22;373;49.342;8.146;2023-03-14T04:37:59;11.30;1.00
780;DHT22;373;49.342;8.146;2023-03-14T04:40:29;11.30;36.40
780;DHT22;373;49.342;8.146;2023-03-14T04:43:01;11.40;1.00
780;DHT22;373;49.342;8.146;2023-03-14T04:45:28;11.30;1.00
780;DHT22;373;49.342;8.146;2023-03-14T04:47:58;11.30;29.10
780;DHT22;373;49.342;8.146;2023-03-14T04:50:25;11.40;1.00
780;DHT22;373;49.342;8.146;2023-03-14T04:52:52;11.40;68.10
780;DHT22;373;49.342;8.146;2023-03-14T04:55:21;11.50;1.00
780;DHT22;373;49.342;8.146;2023-03-14T04:57:48;11.40;1.00
780;DHT22;373;49.342;8.146;2023-03-14T05:00:16;11.30;99.90
780;DHT22;373;49.342;8.146;2023-03-14T05:02:50;11.20;99.90
780;DHT22;373;49.342;8.146;2023-03-14T05:05:40;11.30;99.90
780;DHT22;373;49.342;8.146;2023-03-14T05:08:26;11.40;78.40
780;DHT22;373;49.342;8.146;2023-03-14T05:11:12;11.20;1.00
780;DHT22;373;49.342;8.146;2023-03-14T05:14:02;11.20;1.00
780;DHT22;373;49.342;8.146;2023-03-14T05:16:52;11.20;1.00
780;DHT22;373;49.342;8.146;2023-03-14T05:19:46;11.10;1.00
780;DHT22;373;49.342;8.146;2023-03-14T05:22:42;11.20;99.90
780;DHT22;373;49.342;8.146;2023-03-14T05:25:33;11.10;1.00
780;DHT22;373;49.342;8.146;2023-03-14T05:28:10;11.10;1.00
780;DHT22;373;49.342;8.146;2023-03-14T05:31:06;11.20;1.00
780;DHT22;373;49.342;8.146;2023-03-14T05:34:05;11.20;1.00
780;DHT22;373;49.342;8.146;2023-03-14T05:36:44;11.30;99.90
780;DHT22;373;49.342;8.146;2023-03-14T05:39:11;11.30;99.90
780;DHT22;373;49.342;8.146;2023-03-14T05:42:09;11.30;99.90
780;DHT22;373;49.342;8.146;2023-03-14T05:45:11;11.30;99.90
780;DHT22;373;49.342;8.146;2023-03-14T05:48:07;11.30;1.00
780;DHT22;373;49.342;8.146;2023-03-14T05:51:09;11.30;99.90
780;DHT22;373;49.342;8.146;2023-03-14T05:54:02;11.40;1.00
780;DHT22;373;49.342;8.146;2023-03-14T05:56:37;11.30;99.90
780;DHT22;373;49.342;8.146;2023-03-14T05:59:15;11.30;99.90
780;DHT22;373;49.342;8.146;2023-03-14T06:01:54;11.50;64.10
780;DHT22;373;49.342;8.146;2023-03-14T06:04:24;11.40;99.90
780;DHT22;373;49.342;8.146;2023-03-14T06:06:56;11.40;91.80
780;DHT22;373;49.342;8.146;2023-03-14T06:09:23;11.50;73.60
780;DHT22;373;49.342;8.146;2023-03-14T06:11:57;11.40;1.00
780;DHT22;373;49.342;8.146;2023-03-14T06:14:25;11.40;1.00
780;DHT22;373;49.342;8.146;2023-03-14T06:16:54;11.40;99.90
780;DHT22;373;49.342;8.146;2023-03-14T06:19:26;11.40;1.00
780;DHT22;373;49.342;8.146;2023-03-14T06:21:53;11.30;1.00
780;DHT22;373;49.342;8.146;2023-03-14T06:24:20;11.30;1.00
780;DHT22;373;49.342;8.146;2023-03-14T06:26:51;11.30;90.50
780;DHT22;373;49.342;8.146;2023-03-14T06:29:19;11.50;1.00
780;DHT22;373;49.342;8.146;2023-03-14T06:31:46;11.40;99.90
780;DHT22;373;49.342;8.146;2023-03-14T06:34:17;11.40;1.00
780;DHT22;373;49.342;8.146;2023-03-14T06:36:44;11.40;1.00
780;DHT22;373;49.342;8.146;2023-03-14T06:39:12;11.30;99.90
780;DHT22;373;49.342;8.146;2023-03-14T06:41:43;11.20;1.00
780;DHT22;373;49.342;8.146;2023-03-14T06:44:10;11.40;99.90
780;DHT22;373;49.342;8.146;2023-03-14T06:46:38;11.30;1.00
780;DHT22;373;49.342;8.146;2023-03-14T06:49:05;11.30;99.90
780;DHT22;373;49.342;8.146;2023-03-14T06:51:34;11.30;78.10
780;DHT22;373;49.342;8.146;2023-03-14T06:54:04;11.30;99.90
780;DHT22;373;49.342;8.146;2023-03-14T06:56:31;11.20;99.90
780;DHT22;373;49.342;8.146;2023-03-14T06:58:58;11.20;99.90
780;DHT22;373;49.342;8.146;2023-03-14T07:01:30;11.30;1.00
780;DHT22;373;49.342;8.146;2023-03-14T07:04:04;11.30;1.00
780;DHT22;373;49.342;8.146;2023-03-14T07:06:34;11.10;1.00
780;DHT22;373;49.342;8.146;2023-03-14T07:09:02;11.00;1.00
780;DHT22;373;49.342;8.146;2023-03-14T07:11:29;11.00;1.00
780;DHT22;373;49.342;8.146;2023-03-14T07:13:57;10.90;1.00
780;DHT22;373;49.342;8.146;2023-03-14T07:16:24;10.90;1.00
780;DHT22;373;49.342;8.146;2023-03-14T07:18:54;11.00;1.00
780;DHT22;373;49.342;8.146;2023-03-14T07:21:21;10.90;1.00
780;DHT22;373;49.342;8.146;2023-03-14T07:23:50;10.90;1.00
780;DHT22;373;49.342;8.146;2023-03-14T07:26:18;10.80;1.00
780;DHT22;373;49.342;8.146;2023-03-14T07:28:49;10.80;1.00
780;DHT22;373;49.342;8.146;2023-03-14T07:31:18;10.80;1.00
780;DHT22;373;49.342;8.146;2023-03-14T07:33:46;10.80;1.00
780;DHT22;373;49.342;8.146;2023-03-14T07:36:14;10.80;1.00
780;DHT22;373;49.342;8.146;2023-03-14T07:38:44;10.80;1.00
780;DHT22;373;49.342;8.146;2023-03-14T07:41:28;10.90;1.00
780;DHT22;373;49.342;8.146;2023-03-14T07:44:14;10.90;1.00
780;DHT22;373;49.342;8.146;2023-03-14T07:46:42;11.00;1.00
780;DHT22;373;49.342;8.146;2023-03-14T07:49:09;11.10;1.00
780;DHT22;373;49.342;8.146;2023-03-14T07:51:36;11.20;1.00
780;DHT22;373;49.342;8.146;2023-03-14T07:54:03;11.30;1.00
780;DHT22;373;49.342;8.146;2023-03-14T07:56:32;11.40;1.00
780;DHT22;373;49.342;8.146;2023-03-14T07:58:59;11.40;1.00
780;DHT22;373;49.342;8.146;2023-03-14T08:01:27;11.40;1.00
780;DHT22;373;49.342;8.146;2023-03-14T08:03:54;11.50;1.00
780;DHT22;373;49.342;8.146;2023-03-14T08:06:21;11.40;1.00
780;DHT22;373;49.342;8.146;2023-03-14T08:08:49;11.30;1.00
780;DHT22;373;49.342;8.146;2023-03-14T08:11:16;11.30;1.00
780;DHT22;373;49.342;8.146;2023-03-14T08:13:45;11.30;1.00
780;DHT22;373;49.342;8.146;2023-03-14T08:16:15;11.30;1.00
780;DHT22;373;49.342;8.146;2023-03-14T08:18:43;11.30;1.00
780;DHT22;373;49.342;8.146;2023-03-14T08:21:10;11.30;1.00
780;DHT22;373;49.342;8.146;2023-03-14T08:23:38;11.10;1.00
780;DHT22;373;49.342;8.146;2023-03-14T08:26:06;11.00;1.00
780;DHT22;373;49.342;8.146;2023-03-14T08:28:33;11.10;1.00
780;DHT22;373;49.342;8.146;2023-03-14T08:31:02;11.10;6.70
780;DHT22;373;49.342;8.146;2023-03-14T08:33:29;11.20;1.00
780;DHT22;373;49.342;8.146;2023-03-14T08:35:59;11.10;29.50
780;DHT22;373;49.342;8.146;2023-03-14T08:38:26;11.10;1.00
780;DHT22;373;49.342;8.146;2023-03-14T08:40:57;11.20;1.00
780;DHT22;373;49.342;8.146;2023-03-14T08:43:24;11.60;6.70
780;DHT22;373;49.342;8.146;2023-03-14T08:45:51;11.50;1.00
780;DHT22;373;49.342;8.146;2023-03-14T08:48:20;11.80;1.00
780;DHT22;373;49.342;8.146;2023-03-14T08:50:47;11.80;1.00
780;DHT22;373;49.342;8.146;2023-03-14T08:53:14;11.60;1.00
780;DHT22;373;49.342;8.146;2023-03-14T08:55:42;11.60;38.70
780;DHT22;373;49.342;8.146;2023-03-14T08:58:09;11.60;1.00
780;DHT22;373;49.342;8.146;2023-03-14T09:00:36;11.60;9.00
780;DHT22;373;49.342;8.146;2023-03-14T09:03:03;11.40;35.00
780;DHT22;373;49.342;8.146;2023-03-14T09:05:34;11.10;89.50
780;DHT22;373;49.342;8.146;2023-03-14T09:08:01;11.20;20.40
780;DHT22;373;49.342;8.146;2023-03-14T09:10:28;11.20;70.80
780;DHT22;373;49.342;8.146;2023-03-14T09:12:56;11.20;95.90
780;DHT22;373;49.342;8.146;2023-03-14T09:15:24;11.10;99.90
780;DHT22;373;49.342;8.146;2023-03-14T09:17:51;11.10;99.90
780;DHT22;373;49.342;8.146;2023-03-14T09:20:19;11.30;99.90
780;DHT22;373;49.342;8.146;2023-03-14T09:22:48;11.10;99.90
780;DHT22;373;49.342;8.146;2023-03-14T09:25:15;11.10;99.90
780;DHT22;373;49.342;8.146;2023-03-14T09:27:42;11.20;99.90
780;DHT22;373;49.342;8.146;2023-03-14T09:30:10;11.10;99.90
780;DHT22;373;49.342;8.146;2023-03-14T09:32:38;11.00;99.90
780;DHT22;373;49.342;8.146;2023-03-14T09:35:05;11.00;99.90
780;DHT22;373;49.342;8.146;2023-03-14T09:37:33;11.00;99.90
780;DHT22;373;49.342;8.146;2023-03-14T09:40:02;11.00;99.90
780;DHT22;373;49.342;8.146;2023-03-14T09:42:37;11.00;99.90
780;DHT22;373;49.342;8.146;2023-03-14T09:45:10;11.20;99.90
780;DHT22;373;49.342;8.146;2023-03-14T09:47:38;11.30;99.90
780;DHT22;373;49.342;8.146;2023-03-14T09:50:13;11.50;99.90
780;DHT22;373;49.342;8.146;2023-03-14T09:52:43;11.60;80.90
780;DHT22;373;49.342;8.146;2023-03-14T09:55:15;11.60;75.70
780;DHT22;373;49.342;8.146;2023-03-14T09:57:43;11.70;41.20
780;DHT22;373;49.342;8.146;2023-03-14T10:00:16;11.80;72.00
780;DHT22;373;49.342;8.146;2023-03-14T10:02:50;12.00;3.50
780;DHT22;373;49.342;8.146;2023-03-14T10:05:20;12.00;1.00
780;DHT22;373;49.342;8.146;2023-03-14T10:07:48;12.00;1.00
780;DHT22;373;49.342;8.146;2023-03-14T10:10:19;12.10;1.00
780;DHT22;373;49.342;8.146;2023-03-14T10:12:49;12.00;1.00
780;DHT22;373;49.342;8.146;2023-03-14T10:15:25;12.00;1.00
780;DHT22;373;49.342;8.146;2023-03-14T10:17:53;11.90;1.00
780;DHT22;373;49.342;8.146;2023-03-14T10:20:29;12.00;13.10
780;DHT22;373;49.342;8.146;2023-03-14T10:22:59;11.90;1.00
780;DHT22;373;49.342;8.146;2023-03-14T10:25:30;12.10;14.40
780;DHT22;373;49.342;8.146;2023-03-14T10:27:58;12.00;38.60
780;DHT22;373;49.342;8.146;2023-03-14T10:30:38;11.90;27.00
780;DHT22;373;49.342;8.146;2023-03-14T10:33:11;11.80;56.00
780;DHT22;373;49.342;8.146;2023-03-14T10:35:46;11.60;86.40
780;DHT22;373;49.342;8.146;2023-03-14T10:38:19;11.50;99.90
780;DHT22;373;49.342;8.146;2023-03-14T10:40:50;11.60;99.90
780;DHT22;373;49.342;8.146;2023-03-14T10:43:21;11.60;99.90
780;DHT22;373;49.342;8.146;2023-03-14T10:45:54;11.70;78.20
780;DHT22;373;49.342;8.146;2023-03-14T10:48:30;11.70;91.70
780;DHT22;373;49.342;8.146;2023-03-14T10:51:03;11.60;37.40
780;DHT22;373;49.342;8.146;2023-03-14T10:53:40;11.50;94.60
780;DHT22;373;49.342;8.146;2023-03-14T10:56:11;11.50;94.10
780;DHT22;373;49.342;8.146;2023-03-14T10:58:41;11.50;65.40
780;DHT22;373;49.342;8.146;2023-03-14T11:01:30;11.80;13.90
780;DHT22;373;49.342;8.146;2023-03-14T11:04:04;11.70;21.50
780;DHT22;373;49.342;8.146;2023-03-14T11:06:38;11.70;14.00
780;DHT22;373;49.342;8.146;2023-03-14T11:09:14;11.70;1.00
780;DHT22;373;49.342;8.146;2023-03-14T11:11:47;11.60;1.00
780;DHT22;373;49.342;8.146;2023-03-14T11:14:20;11.70;1.00
780;DHT22;373;49.342;8.146;2023-03-14T11:16:54;11.50;1.00
780;DHT22;373;49.342;8.146;2023-03-14T11:19:33;11.30;1.00
780;DHT22;373;49.342;8.146;2023-03-14T11:22:07;11.30;1.00
780;DHT22;373;49.342;8.146;2023-03-14T11:24:52;11.80;1.00
780;DHT22;373;49.342;8.146;2023-03-14T11:27:28;11.90;1.00
780;DHT22;373;49.342;8.146;2023-03-14T11:30:02;11.90;99.90
780;DHT22;373;49.342;8.146;2023-03-14T11:32:38;11.90;1.00
780;DHT22;373;49.342;8.146;2023-03-14T11:35:17;12.10;1.00
780;DHT22;373;49.342;8.146;2023-03-14T11:37:51;12.30;1.00
780;DHT22;373;49.342;8.146;2023-03-14T11:40:21;12.30;1.00
780;DHT22;373;49.342;8.146;2023-03-14T11:42:55;12.00;1.00
780;DHT22;373;49.342;8.146;2023-03-14T11:45:28;11.60;99.90
780;DHT22;373;49.342;8.146;2023-03-14T11:48:07;11.40;99.90
780;DHT22;373;49.342;8.146;2023-03-14T11:50:36;11.60;99.90
780;DHT22;373;49.342;8.146;2023-03-14T11:53:11;11.40;1.00
780;DHT22;373;49.342;8.146;2023-03-14T11:55:42;11.10;99.90
780;DHT22;373;49.342;8.146;2023-03-14T11:58:15;10.90;1.00
780;DHT22;373;49.342;8.146;2023-03-14T12:00:45;10.70;1.00
780;DHT22;373;49.342;8.146;2023-03-14T12:03:19;10.70;1.00
780;DHT22;373;49.342;8.146;2023-03-14T12:06:05;10.60;1.00
780;DHT22;373;49.342;8.146;2023-03-14T12:08:46;10.60;1.00
780;DHT22;373;49.342;8.146;2023-03-14T12:11:21;10.40;1.00
780;DHT22;373;49.342;8.146;2023-03-14T12:13:52;10.10;1.00
780;DHT22;373;49.342;8.146;2023-03-14T12:16:38;9.90;1.00
780;DHT22;373;49.342;8.146;2023-03-14T12:19:30;9.90;1.00
780;DHT22;373;49.342;8.146;2023-03-14T12:22:01;9.70;1.00
780;DHT22;373;49.342;8.146;2023-03-14T12:24:35;9.50;1.00
780;DHT22;373;49.342;8.146;2023-03-14T12:27:04;9.30;1.00
780;DHT22;373;49.342;8.146;2023-03-14T12:29:57;9.20;99.90
780;DHT22;373;49.342;8.146;2023-03-14T12:32:25;9.50;99.90
780;DHT22;373;49.342;8.146;2023-03-14T12:34:52;9.80;99.90
780;DHT22;373;49.342;8.146;2023-03-14T12:37:26;10.10;99.90
780;DHT22;373;49.342;8.146;2023-03-14T12:40:05;10.50;1.00
780;DHT22;373;49.342;8.146;2023-03-14T12:42:46;11.00;1.00
780;DHT22;373;49.342;8.146;2023-03-14T12:45:27;11.50;1.00
780;DHT22;373;49.342;8.146;2023-03-14T12:48:00;11.20;99.90
780;DHT22;373;49.342;8.146;2023-03-14T12:50:35;10.90;1.00
780;DHT22;373;49.342;8.146;2023-03-14T12:53:36;11.30;99.90
780;DHT22;373;49.342;8.146;2023-03-14T12:56:28;11.00;1.00
780;DHT22;373;49.342;8.146;2023-03-14T12:59:28;11.50;99.90
780;DHT22;373;49.342;8.146;2023-03-14T13:02:00;11.60;1.00
780;DHT22;373;49.342;8.146;2023-03-14T13:04:31;11.50;1.00
780;DHT22;373;49.342;8.146;2023-03-14T13:06:59;11.60;1.00
780;DHT22;373;49.342;8.146;2023-03-14T13:09:51;11.50;1.00
780;DHT22;373;49.342;8.146;2023-03-14T13:12:25;11.00;1.00
780;DHT22;373;49.342;8.146;2023-03-14T13:14:58;10.70;1.00
780;DHT22;373;49.342;8.146;2023-03-14T13:17:33;10.80;1.00
780;DHT22;373;49.342;8.146;2023-03-14T13:20:03;10.80;1.00
780;DHT22;373;49.342;8.146;2023-03-14T13:22:34;10.90;1.00
780;DHT22;373;49.342;8.146;2023-03-14T13:25:05;11.10;1.00
780;DHT22;373;49.342;8.146;2023-03-14T13:27:34;11.30;99.90
780;DHT22;373;49.342;8.146;2023-03-14T13:30:13;11.10;99.90
780;DHT22;373;49.342;8.146;2023-03-14T13:32:46;11.30;99.90
780;DHT22;373;49.342;8.146;2023-03-14T13:35:19;11.50;99.90
780;DHT22;373;49.342;8.146;2023-03-14T13:37:46;11.40;99.90
780;DHT22;373;49.342;8.146;2023-03-14T13:40:24;11.20;99.90
780;DHT22;373;49.342;8.146;2023-03-14T13:43:04;11.20;99.90
780;DHT22;373;49.342;8.146;2023-03-14T13:45:43;11.50;99.90
780;DHT22;373;49.342;8.146;2023-03-14T13:48:12;12.00;99.90
780;DHT22;373;49.342;8.146;2023-03-14T13:50:45;12.10;99.90
780;DHT22;373;49.342;8.146;2023-03-14T13:53:12;11.70;99.90
780;DHT22;373;49.342;8.146;2023-03-14T13:55:39;11.90;99.90
780;DHT22;373;49.342;8.146;2023-03-14T13:58:19;12.30;99.90
780;DHT22;373;49.342;8.146;2023-03-14T14:00:54;12.70;99.90
780;DHT22;373;49.342;8.146;2023-03-14T14:03:24;12.50;99.90
780;DHT22;373;49.342;8.146;2023-03-14T14:05:51;12.20;99.90
780;DHT22;373;49.342;8.146;2023-03-14T14:08:21;12.40;99.90
780;DHT22;373;49.342;8.146;2023-03-14T14:10:48;12.70;99.90
780;DHT22;373;49.342;8.146;2023-03-14T14:13:17;12.60;99.90
780;DHT22;373;49.342;8.146;2023-03-14T14:15:49;12.40;99.90
780;DHT22;373;49.342;8.146;2023-03-14T14:18:19;12.30;99.90
780;DHT22;373;49.342;8.146;2023-03-14T14:20:51;12.10;99.90
780;DHT22;373;49.342;8.146;2023-03-14T14:23:21;12.00;99.90
780;DHT22;373;49.342;8.146;2023-03-14T14:25:51;12.10;99.90
780;DHT22;373;49.342;8.146;2023-03-14T14:28:24;12.40;99.90
780;DHT22;373;49.342;8.146;2023-03-14T14:31:00;12.40;99.90
780;DHT22;373;49.342;8.146;2023-03-14T14:33:28;12.20;99.90
780;DHT22;373;49.342;8.146;2023-03-14T14:35:58;12.60;99.90
780;DHT22;373;49.342;8.146;2023-03-14T14:38:27;12.50;99.90
780;DHT22;373;49.342;8.146;2023-03-14T14:41:00;12.10;99.90
780;DHT22;373;49.342;8.146;2023-03-14T14:43:30;11.90;99.90
780;DHT22;373;49.342;8.146;2023-03-14T14:46:01;11.80;99.90
780;DHT22;373;49.342;8.146;2023-03-14T14:48:37;11.70;99.90
780;DHT22;373;49.342;8.146;2023-03-14T14:51:06;11.80;99.90
780;DHT22;373;49.342;8.146;2023-03-14T14:53:37;11.70;99.90
780;DHT22;373;49.342;8.146;2023-03-14T14:56:13;11.70;99.90
780;DHT22;373;49.342;8.146;2023-03-14T14:58:45;11.70;99.90
780;DHT22;373;49.342;8.146;2023-03-14T15:01:15;11.90;99.90
780;DHT22;373;49.342;8.146;2023-03-14T15:03:44;12.20;99.90
780;DHT22;373;49.342;8.146;2023-03-14T15:06:14;12.10;99.90
780;DHT22;373;49.342;8.146;2023-03-14T15:08:43;12.10;99.90
780;DHT22;373;49.342;8.146;2023-03-14T15:11:16;12.20;99.90
780;DHT22;373;49.342;8.146;2023-03-14T15:13:44;12.10;99.90
780;DHT22;373;49.342;8.146;2023-03-14T15:16:12;12.20;99.90
780;DHT22;373;49.342;8.146;2023-03-14T15:18:40;12.20;99.90
780;DHT22;373;49.342;8.146;2023-03-14T15:21:09;12.20;99.90
780;DHT22;373;49.342;8.146;2023-03-14T15:23:37;12.50;99.90
780;DHT22;373;49.342;8.146;2023-03-14T15:26:11;12.50;98.10
780;DHT22;373;49.342;8.146;2023-03-14T15:28:40;12.40;98.60
780;DHT22;373;49.342;8.146;2023-03-14T15:31:09;12.00;95.20
780;DHT22;373;49.342;8.146;2023-03-14T15:33:37;11.90;96.70
780;DHT22;373;49.342;8.146;2023-03-14T15:36:06;11.80;94.60
780;DHT22;373;49.342;8.146;2023-03-14T15:38:37;11.60;93.90
780;DHT22;373;49.342;8.146;2023-03-14T15:41:04;11.60;95.60
780;DHT22;373;49.342;8.146;2023-03-14T15:43:31;11.60;94.90
780;DHT22;373;49.342;8.146;2023-03-14T15:45:58;11.60;95.20
780;DHT22;373;49.342;8.146;2023-03-14T15:48:26;11.70;96.60
780;DHT22;373;49.342;8.146;2023-03-14T15:50:53;11.70;95.00
780;DHT22;373;49.342;8.146;2023-03-14T15:53:20;11.50;94.50
780;DHT22;373;49.342;8.146;2023-03-14T15:55:48;11.40;94.20
780;DHT22;373;49.342;8.146;2023-03-14T15:58:18;11.30;94.10
780;DHT22;373;49.342;8.146;2023-03-14T16:00:45;11.30;95.50
780;DHT22;373;49.342;8.146;2023-03-14T16:03:12;11.20;95.30
780;DHT22;373;49.342;8.146;2023-03-14T16:05:40;11.30;95.70
780;DHT22;373;49.342;8.146;2023-03-14T16:08:07;11.10;97.20
780;DHT22;373;49.342;8.146;2023-03-14T16:10:34;11.10;97.00
780;DHT22;373;49.342;8.146;2023-03-14T16:13:03;11.00;97.20
780;DHT22;373;49.342;8.146;2023-03-14T16:15:30;10.90;98.20
780;DHT22;373;49.342;8.146;2023-03-14T16:17:57;10.70;98.10
780;DHT22;373;49.342;8.146;2023-03-14T16:20:25;10.70;99.30
780;DHT22;373;49.342;8.146;2023-03-14T16:22:52;10.50;98.40
780;DHT22;373;49.342;8.146;2023-03-14T16:25:20;10.50;99.50
780;DHT22;373;49.342;8.146;2023-03-14T16:27:47;10.40;99.90
780;DHT22;373;49.342;8.146;2023-03-14T16:30:16;10.50;99.90
780;DHT22;373;49.342;8.146;2023-03-14T16:32:45;10.60;99.90
780;DHT22;373;49.342;8.146;2023-03-14T16:35:12;10.60;99.90
780;DHT22;373;49.342;8.146;2023-03-14T16:37:40;10.40;99.90
780;DHT22;373;49.342;8.146;2023-03-14T16:40:09;10.30;99.90
780;DHT22;373;49.342;8.146;2023-03-14T16:42:36;10.20;99.90
780;DHT22;373;49.342;8.146;2023-03-14T16:45:04;10.20;99.90
780;DHT22;373;49.342;8.146;2023-03-14T16:47:33;10.10;99.90
780;DHT22;373;49.342;8.146;2023-03-14T16:50:00;10.10;99.90
780;DHT22;373;49.342;8.146;2023-03-14T16:52:28;10.10;99.90
780;DHT22;373;49.342;8.146;2023-03-14T16:54:55;10.10;99.90
780;DHT22;373;49.342;8.146;2023-03-14T16:57:22;10.20;99.90
780;DHT22;373;49.342;8.146;2023-03-14T16:59:49;10.10;99.90
780;DHT22;373;49.342;8.146;2023-03-14T17:02:16;9.90;99.90
780;DHT22;373;49.342;8.146;2023-03-14T17:04:45;9.80;99.90
780;DHT22;373;49.342;8.146;2023-03-14T17:07:12;9.80;99.90
780;DHT22;373;49.342;8.146;2023-03-14T17:09:39;9.80;99.90
780;DHT22;373;49.342;8.146;2023-03-14T17:12:07;9.70;99.90